createdAt,value
2023-10-29T00:05:05.773Z,2.83
2023-10-29T00:10:10.926Z,3.15
2023-10-29T00:15:14.868Z,2.97
2023-10-29T00:20:20.751Z,3.55
2023-10-29T00:25:25.196Z,3.13
2023-10-29T00:30:29.054Z,3.42
2023-10-29T00:35:34.433Z,3.30
2023-10-29T00:40:40.525Z,2.88
2023-10-29T00:45:45.859Z,3.40
2023-10-29T00:50:51.946Z,3.85
2023-10-29T00:55:57.198Z,3.60
2023-10-29T01:01:01.172Z,4.68
2023-10-29T01:06:09.614Z,4.45
2023-10-29T01:11:14.594Z,4.10
2023-10-29T01:16:18.666Z,4.82
2023-10-29T01:21:24.329Z,3.65
2023-10-29T01:26:28.262Z,3.90
2023-10-29T01:31:32.163Z,4.03
2023-10-29T01:36:37.411Z,5.53
2023-10-29T01:41:41.310Z,4.20
2023-10-29T01:46:45.269Z,3.75
2023-10-29T01:51:51.502Z,2.90
2023-10-29T01:56:55.366Z,3.15
2023-10-29T02:01:59.373Z,2.92
2023-10-29T02:07:04.721Z,3.20
2023-10-29T02:12:09.986Z,2.60
2023-10-29T02:17:14.269Z,2.83
2023-10-29T02:22:19.790Z,3.17
2023-10-29T02:27:24.068Z,3.30
2023-10-29T02:32:28.287Z,3.35
2023-10-29T02:37:35.411Z,3.20
2023-10-29T02:42:39.304Z,3.30
2023-10-29T02:47:43.182Z,2.53
2023-10-29T02:52:48.524Z,3.17
2023-10-29T02:57:52.340Z,3.88
2023-10-29T03:02:56.318Z,3.42
2023-10-29T03:08:02.010Z,3.17
2023-10-29T03:13:05.873Z,4.03
2023-10-29T03:18:09.787Z,2.25
2023-10-29T03:23:15.261Z,3.10
2023-10-29T03:28:19.138Z,3.03
2023-10-29T03:33:23.433Z,3.55
2023-10-29T03:38:28.890Z,2.92
2023-10-29T03:43:34.371Z,4.10
2023-10-29T03:48:44.367Z,3.35
2023-10-29T03:53:50.490Z,4.53
2023-10-29T03:58:54.382Z,4.35
2023-10-29T04:03:58.302Z,4.50
2023-10-29T04:09:03.631Z,2.90
2023-10-29T04:14:07.743Z,2.88
2023-10-29T04:19:11.824Z,3.60
2023-10-29T04:24:17.436Z,2.92
2023-10-29T04:29:23.767Z,4.05
2023-10-29T04:34:27.624Z,3.28
2023-10-29T04:39:33.784Z,2.30
2023-10-29T04:44:37.682Z,9.48
2023-10-29T04:49:41.689Z,7.65
2023-10-29T04:54:47.655Z,5.78
2023-10-29T04:59:53.568Z,4.72
2023-10-29T05:04:58.776Z,4.53
2023-10-29T05:10:04.215Z,8.13
2023-10-29T05:15:09.773Z,11.77
2023-10-29T05:20:14.357Z,4.72
2023-10-29T05:25:19.651Z,5.25
2023-10-29T05:30:25.440Z,10.35
2023-10-29T05:35:29.527Z,3.85
2023-10-29T05:40:35.056Z,4.30
2023-10-29T05:45:39.018Z,3.72
2023-10-29T05:50:43.056Z,3.08
2023-10-29T05:55:48.322Z,3.53
2023-10-29T06:00:52.531Z,29.33
2023-10-29T06:05:57.007Z,23.17
2023-10-29T06:11:02.349Z,3.75
2023-10-29T06:16:09.728Z,4.68
2023-10-29T06:21:13.644Z,5.60
2023-10-29T06:26:19.301Z,7.10
2023-10-29T06:31:29.725Z,5.88
2023-10-29T06:36:33.955Z,5.45
2023-10-29T06:41:39.282Z,6.35
2023-10-29T06:46:43.294Z,6.10
2023-10-29T06:51:47.129Z,6.45
2023-10-29T06:56:52.547Z,5.43
2023-10-29T07:01:58.033Z,5.70
2023-10-29T07:07:02.085Z,6.47
2023-10-29T07:12:08.791Z,5.78
2023-10-29T07:17:12.711Z,8.57
2023-10-29T07:22:16.585Z,5.35
2023-10-29T07:27:21.865Z,5.07
2023-10-29T07:32:25.710Z,5.05
2023-10-29T07:37:29.601Z,4.30
2023-10-29T07:42:34.842Z,3.75
2023-10-29T07:47:38.740Z,4.82
2023-10-29T07:52:42.632Z,3.95
2023-10-29T07:57:47.937Z,4.35
2023-10-29T08:02:51.865Z,4.53
2023-10-29T08:07:56.042Z,4.75
2023-10-29T08:13:01.658Z,4.68
2023-10-29T08:18:05.974Z,3.80
2023-10-29T08:23:10.640Z,2.28
2023-10-29T08:28:15.884Z,1.90
2023-10-29T08:33:21.016Z,1.92
2023-10-29T08:38:24.857Z,1.85
2023-10-29T08:43:31.705Z,2.15
2023-10-29T08:48:38.742Z,2.30
2023-10-29T08:53:43.382Z,1.80
2023-10-29T08:58:48.737Z,3.65
2023-10-29T09:03:54.868Z,6.10
2023-10-29T09:09:04.342Z,2.00
2023-10-29T09:14:11.959Z,1.65
2023-10-29T09:19:16.050Z,1.83
2023-10-29T09:24:20.025Z,1.80
2023-10-29T09:29:25.420Z,1.80
2023-10-29T09:34:29.220Z,1.70
2023-10-29T09:39:33.441Z,1.52
2023-10-29T09:44:42.949Z,1.48
2023-10-29T09:49:47.197Z,1.05
2023-10-29T09:54:52.909Z,1.20
2023-10-29T09:59:58.264Z,1.92
2023-10-29T10:05:05.593Z,2.22
2023-10-29T10:10:11.440Z,1.13
2023-10-29T10:15:17.954Z,0.88
2023-10-29T10:20:24.100Z,0.70
2023-10-29T10:25:29.998Z,1.33
2023-10-29T10:30:37.334Z,1.05
2023-10-29T10:35:45.528Z,1.40
2023-10-29T10:40:57.644Z,1.30
2023-10-29T10:46:06.844Z,1.35
2023-10-29T10:51:13.411Z,1.08
2023-10-29T10:56:18.305Z,1.55
2023-10-29T11:01:26.540Z,1.00
2023-10-29T11:06:30.744Z,1.45
2023-10-29T11:11:36.674Z,1.15
2023-10-29T11:16:52.816Z,1.77
2023-10-29T11:22:29.815Z,2.15
2023-10-29T11:27:37.808Z,1.15
2023-10-29T11:37:48.219Z,1.20
2023-10-29T11:42:52.333Z,1.27
2023-10-29T11:48:14.359Z,0.98
2023-10-29T11:53:27.543Z,5.68
2023-10-29T11:58:31.378Z,2.10
2023-10-29T12:03:36.959Z,0.90
2023-10-29T12:08:42.436Z,1.30
2023-10-29T12:13:48.817Z,1.17
2023-10-29T12:18:55.596Z,1.02
2023-10-29T12:24:02.969Z,1.00
2023-10-29T12:29:08.473Z,1.40
2023-10-29T12:34:13.924Z,0.80
2023-10-29T12:39:18.021Z,1.30
2023-10-29T12:44:22.849Z,1.27
2023-10-29T12:49:34.947Z,1.40
2023-10-29T12:54:45.347Z,1.38
2023-10-29T12:59:49.444Z,1.48
2023-10-29T13:04:54.789Z,1.55
2023-10-29T13:10:01.266Z,1.55
2023-10-29T13:15:05.797Z,1.20
2023-10-29T13:20:13.087Z,1.08
2023-10-29T13:25:17.797Z,1.20
2023-10-29T13:30:21.909Z,1.65
2023-10-29T13:35:28.288Z,1.40
2023-10-29T13:40:33.364Z,1.38
2023-10-29T13:45:38.626Z,0.93
2023-10-29T13:50:43.989Z,1.13
2023-10-29T13:55:48.293Z,0.85
2023-10-29T14:00:52.256Z,1.00
2023-10-29T14:05:57.876Z,1.33
2023-10-29T14:11:02.317Z,1.20
2023-10-29T14:16:08.435Z,1.10
2023-10-29T14:21:13.773Z,2.10
2023-10-29T14:26:19.533Z,2.35
2023-10-29T14:31:23.344Z,3.75
2023-10-29T14:36:28.731Z,1.83
2023-10-29T14:41:32.712Z,3.38
2023-10-29T14:46:37.725Z,7.78
2023-10-29T14:51:42.966Z,12.57
2023-10-29T14:56:46.906Z,3.20
2023-10-29T15:01:53.428Z,2.88
2023-10-29T15:06:58.765Z,3.30
2023-10-29T15:12:04.776Z,6.25
2023-10-29T15:17:08.835Z,5.63
2023-10-29T15:22:14.423Z,5.70
2023-10-29T15:27:18.766Z,5.65
2023-10-29T15:32:23.160Z,29.75
2023-10-29T15:37:29.724Z,8.77
2023-10-29T15:42:35.268Z,16.10
2023-10-29T15:47:39.246Z,9.40
2023-10-29T15:52:44.871Z,6.90
2023-10-29T15:57:51.376Z,4.38
2023-10-29T16:02:56.138Z,6.80
2023-10-29T16:08:01.749Z,10.90
2023-10-29T16:13:06.334Z,6.53
2023-10-29T16:18:10.732Z,9.30
2023-10-29T16:23:16.345Z,5.50
2023-10-29T16:28:20.620Z,5.53
2023-10-29T16:33:24.785Z,6.90
2023-10-29T16:38:30.570Z,6.88
2023-10-29T16:43:34.706Z,5.22
2023-10-29T16:48:39.446Z,4.28
2023-10-29T16:53:46.467Z,10.57
2023-10-29T16:58:51.721Z,18.17
2023-10-29T17:03:55.754Z,13.30
2023-10-29T17:09:01.466Z,12.38
2023-10-29T17:14:06.352Z,9.25
2023-10-29T17:19:10.428Z,7.30
2023-10-29T17:24:15.928Z,6.32
2023-10-29T17:29:19.854Z,5.07
2023-10-29T17:34:23.748Z,7.03
2023-10-29T17:39:29.213Z,7.53
2023-10-29T17:44:36.052Z,8.27
2023-10-29T17:49:39.995Z,9.85
2023-10-29T17:54:45.355Z,16.10
2023-10-29T17:59:49.366Z,15.60
2023-10-29T18:04:53.448Z,12.43
2023-10-29T18:09:58.829Z,13.30
2023-10-29T18:15:05.053Z,11.75
2023-10-29T18:20:10.680Z,13.02
2023-10-29T18:25:16.196Z,11.88
2023-10-29T18:30:21.868Z,11.43
2023-10-29T18:35:25.909Z,10.32
2023-10-29T18:40:32.246Z,10.75
2023-10-29T18:45:41.521Z,7.25
2023-10-29T18:50:45.409Z,8.10
2023-10-29T18:55:50.740Z,7.95
2023-10-29T19:00:55.424Z,14.80
2023-10-29T19:05:59.476Z,16.05
2023-10-29T19:11:06.020Z,11.55
2023-10-29T19:16:10.324Z,10.73
2023-10-29T19:21:15.369Z,8.52
2023-10-29T19:26:21.091Z,8.27
2023-10-29T19:31:28.004Z,8.70
2023-10-29T19:36:37.246Z,5.60
2023-10-29T19:41:42.537Z,5.00
2023-10-29T19:46:46.682Z,5.13
2023-10-29T19:51:51.408Z,5.45
2023-10-29T19:56:58.303Z,5.25
2023-10-29T20:02:03.401Z,4.20
2023-10-29T20:07:10.106Z,3.38
2023-10-29T20:12:16.130Z,5.72
2023-10-29T20:17:20.212Z,6.90
2023-10-29T20:22:25.444Z,5.97
2023-10-29T20:27:31.029Z,5.00
2023-10-29T20:32:35.172Z,5.45
2023-10-29T20:37:39.327Z,12.73
2023-10-29T20:42:44.616Z,6.38
2023-10-29T20:47:49.688Z,6.00
2023-10-29T20:52:53.577Z,5.43
2023-10-29T20:57:59.476Z,10.43
2023-10-29T21:03:04.241Z,11.95
2023-10-29T21:08:08.309Z,13.05
2023-10-29T21:13:13.739Z,8.25
2023-10-29T21:18:17.642Z,5.20
2023-10-29T21:23:24.896Z,4.45
2023-10-29T21:28:30.369Z,5.18
2023-10-29T21:33:34.660Z,3.35
2023-10-29T21:38:39.320Z,8.10
2023-10-29T21:43:46.473Z,6.15
2023-10-29T21:48:50.762Z,5.35
2023-10-29T21:53:54.689Z,5.53
2023-10-29T21:59:00.358Z,7.07
2023-10-29T22:04:04.550Z,9.07
2023-10-29T22:09:09.992Z,7.60
2023-10-29T22:14:15.354Z,8.50
2023-10-29T22:19:19.759Z,8.32
2023-10-29T22:24:24.009Z,8.45
2023-10-29T22:29:30.226Z,6.72
2023-10-29T22:34:34.103Z,7.05
2023-10-29T22:39:38.101Z,5.18
2023-10-29T22:44:43.368Z,5.70
2023-10-29T22:49:47.728Z,5.25
2023-10-29T22:54:51.901Z,3.88
2023-10-29T22:59:58.774Z,4.25
2023-10-29T23:05:18.619Z,3.88
2023-10-29T23:10:25.228Z,3.28
2023-10-29T23:15:30.529Z,3.30
2023-10-29T23:20:36.064Z,4.30
2023-10-29T23:25:39.919Z,4.72
2023-10-29T23:30:45.807Z,5.35
2023-10-29T23:35:53.098Z,7.43
2023-10-29T23:40:58.452Z,5.65
2023-10-29T23:46:04.879Z,7.10
2023-10-29T23:51:09.102Z,6.32
2023-10-29T23:56:13.068Z,4.07
